sensor_id;sensor_type;location;lat;lon;timestamp;P1;P2;P0
76049;PMS7003;64967;50.234;19.224;2023-02-01T00:02:25;12.50;9.00;7.00
76049;PMS7003;64967;50.234;19.224;2023-02-01T00:04:52;12.00;9.50;8.00
76049;PMS7003;64967;50.234;19.224;2023-02-01T00:07:19;13.50;11.00;6.00
76049;PMS7003;64967;50.234;19.224;2023-02-01T00:09:46;11.25;11.00;8.00
76049;PMS7003;64967;50.234;19.224;2023-02-01T00:12:12;5.25;5.25;4.25
76049;PMS7003;64967;50.234;19.224;2023-02-01T00:14:39;12.00;10.00;8.00
76049;PMS7003;64967;50.234;19.224;2023-02-01T00:17:06;12.75;10.00;8.00
76049;PMS7003;64967;50.234;19.224;2023-02-01T00:19:33;13.00;9.75;7.25
76049;PMS7003;64967;50.234;19.224;2023-02-01T00:22:00;10.00;8.50;5.50
76049;PMS7003;64967;50.234;19.224;2023-02-01T00:24:27;13.00;9.25;8.00
76049;PMS7003;64967;50.234;19.224;2023-02-01T00:26:54;10.50;9.25;7.50
76049;PMS7003;64967;50.234;19.224;2023-02-01T00:29:22;11.00;8.00;6.00
76049;PMS7003;64967;50.234;19.224;2023-02-01T00:31:49;9.75;9.50;7.50
76049;PMS7003;64967;50.234;19.224;2023-02-01T00:34:18;10.00;9.00;8.00
76049;PMS7003;64967;50.234;19.224;2023-02-01T00:36:45;10.75;9.75;8.00
76049;PMS7003;64967;50.234;19.224;2023-02-01T00:39:13;8.75;5.50;5.00
76049;PMS7003;64967;50.234;19.224;2023-02-01T00:41:41;11.50;8.50;6.00
76049;PMS7003;64967;50.234;19.224;2023-02-01T00:44:08;8.75;8.00;6.00
76049;PMS7003;64967;50.234;19.224;2023-02-01T00:46:35;10.00;8.00;6.00
76049;PMS7003;64967;50.234;19.224;2023-02-01T00:49:02;12.00;10.50;8.00
76049;PMS7003;64967;50.234;19.224;2023-02-01T00:51:30;10.25;9.25;5.75
76049;PMS7003;64967;50.234;19.224;2023-02-01T00:53:57;7.50;5.75;4.75
76049;PMS7003;64967;50.234;19.224;2023-02-01T00:56:25;8.50;6.25;4.25
76049;PMS7003;64967;50.234;19.224;2023-02-01T00:58:55;6.75;6.00;5.00
76049;PMS7003;64967;50.234;19.224;2023-02-01T01:01:24;7.25;6.25;5.50
76049;PMS7003;64967;50.234;19.224;2023-02-01T01:03:53;9.75;8.50;7.75
76049;PMS7003;64967;50.234;19.224;2023-02-01T01:06:24;15.00;11.00;9.00
76049;PMS7003;64967;50.234;19.224;2023-02-01T01:08:53;7.75;6.50;5.25
76049;PMS7003;64967;50.234;19.224;2023-02-01T01:11:23;12.50;9.50;7.50
76049;PMS7003;64967;50.234;19.224;2023-02-01T01:13:54;8.00;8.00;6.00
76049;PMS7003;64967;50.234;19.224;2023-02-01T01:16:23;10.75;9.50;6.75
76049;PMS7003;64967;50.234;19.224;2023-02-01T01:18:52;11.00;10.00;8.00
76049;PMS7003;64967;50.234;19.224;2023-02-01T01:21:20;13.75;12.50;9.00
76049;PMS7003;64967;50.234;19.224;2023-02-01T01:23:47;14.50;8.00;6.00
76049;PMS7003;64967;50.234;19.224;2023-02-01T01:26:16;12.50;11.50;8.00
76049;PMS7003;64967;50.234;19.224;2023-02-01T01:28:44;10.00;9.75;9.00
76049;PMS7003;64967;50.234;19.224;2023-02-01T01:31:13;9.75;9.00;8.00
76049;PMS7003;64967;50.234;19.224;2023-02-01T01:33:41;7.00;6.75;6.00
76049;PMS7003;64967;50.234;19.224;2023-02-01T01:36:10;8.50;6.00;5.00
76049;PMS7003;64967;50.234;19.224;2023-02-01T01:38:39;8.25;6.00;5.00
76049;PMS7003;64967;50.234;19.224;2023-02-01T01:41:07;4.00;3.50;3.50
76049;PMS7003;64967;50.234;19.224;2023-02-01T01:43:46;6.50;5.00;4.00
76049;PMS7003;64967;50.234;19.224;2023-02-01T01:46:22;5.00;4.00;2.00
76049;PMS7003;64967;50.234;19.224;2023-02-01T01:48:59;4.00;4.00;2.00
76049;PMS7003;64967;50.234;19.224;2023-02-01T01:51:37;4.00;3.50;2.00
76049;PMS7003;64967;50.234;19.224;2023-02-01T01:54:16;3.25;1.75;1.25
76049;PMS7003;64967;50.234;19.224;2023-02-01T01:56:49;4.00;2.00;1.00
76049;PMS7003;64967;50.234;19.224;2023-02-01T01:59:20;0.50;0.00;0.00
76049;PMS7003;64967;50.234;19.224;2023-02-01T02:01:49;0.25;0.00;0.00
76049;PMS7003;64967;50.234;19.224;2023-02-01T02:04:18;3.00;1.00;0.00
76049;PMS7003;64967;50.234;19.224;2023-02-01T02:06:56;2.75;1.00;1.00
76049;PMS7003;64967;50.234;19.224;2023-02-01T02:09:58;1.75;1.00;1.00
76049;PMS7003;64967;50.234;19.224;2023-02-01T02:12:56;3.00;2.00;1.25
76049;PMS7003;64967;50.234;19.224;2023-02-01T02:15:46;0.25;0.00;0.00
76049;PMS7003;64967;50.234;19.224;2023-02-01T02:35:42;3.50;1.50;1.00
76049;PMS7003;64967;50.234;19.224;2023-02-01T02:40:56;2.25;2.25;1.75
76049;PMS7003;64967;50.234;19.224;2023-02-01T02:43:32;1.00;1.00;1.00
76049;PMS7003;64967;50.234;19.224;2023-02-01T02:46:40;1.00;1.00;1.00
76049;PMS7003;64967;50.234;19.224;2023-02-01T02:49:47;1.00;1.00;0.00
76049;PMS7003;64967;50.234;19.224;2023-02-01T02:52:42;2.00;1.00;0.50
76049;PMS7003;64967;50.234;19.224;2023-02-01T02:55:36;1.25;1.00;1.00
76049;PMS7003;64967;50.234;19.224;2023-02-01T02:58:06;3.50;1.50;1.00
76049;PMS7003;64967;50.234;19.224;2023-02-01T03:00:53;1.00;1.00;0.00
76049;PMS7003;64967;50.234;19.224;2023-02-01T03:03:42;5.00;2.00;2.00
76049;PMS7003;64967;50.234;19.224;2023-02-01T03:06:35;4.50;4.50;4.00
76049;PMS7003;64967;50.234;19.224;2023-02-01T03:09:04;4.00;4.00;4.00
76049;PMS7003;64967;50.234;19.224;2023-02-01T03:11:39;8.00;5.00;4.00
76049;PMS7003;64967;50.234;19.224;2023-02-01T03:14:27;4.00;4.00;2.50
76049;PMS7003;64967;50.234;19.224;2023-02-01T03:17:00;4.50;3.75;2.00
76049;PMS7003;64967;50.234;19.224;2023-02-01T03:19:38;5.00;4.00;4.00
76049;PMS7003;64967;50.234;19.224;2023-02-01T03:22:14;7.50;2.00;1.25
76049;PMS7003;64967;50.234;19.224;2023-02-01T03:27:30;3.50;2.00;2.00
76049;PMS7003;64967;50.234;19.224;2023-02-01T03:32:45;3.00;2.00;1.75
76049;PMS7003;64967;50.234;19.224;2023-02-01T03:35:27;4.25;2.50;2.00
76049;PMS7003;64967;50.234;19.224;2023-02-01T03:38:04;4.00;2.00;1.25
76049;PMS7003;64967;50.234;19.224;2023-02-01T03:40:54;5.00;2.00;2.00
76049;PMS7003;64967;50.234;19.224;2023-02-01T03:43:29;3.00;2.00;1.25
76049;PMS7003;64967;50.234;19.224;2023-02-01T03:46:04;6.00;5.00;2.00
76049;PMS7003;64967;50.234;19.224;2023-02-01T03:48:37;5.25;4.00;2.00
76049;PMS7003;64967;50.234;19.224;2023-02-01T03:51:06;5.00;3.50;2.50
76049;PMS7003;64967;50.234;19.224;2023-02-01T03:53:34;6.50;5.25;2.00
76049;PMS7003;64967;50.234;19.224;2023-02-01T03:56:03;4.50;3.50;2.00
76049;PMS7003;64967;50.234;19.224;2023-02-01T03:58:32;2.00;2.00;2.00
76049;PMS7003;64967;50.234;19.224;2023-02-01T04:00:59;4.25;4.25;4.00
76049;PMS7003;64967;50.234;19.224;2023-02-01T04:03:27;4.75;4.00;3.50
76049;PMS7003;64967;50.234;19.224;2023-02-01T04:05:54;9.75;5.00;4.00
76049;PMS7003;64967;50.234;19.224;2023-02-01T04:08:22;8.00;7.50;5.25
76049;PMS7003;64967;50.234;19.224;2023-02-01T04:10:50;5.00;5.00;4.00
76049;PMS7003;64967;50.234;19.224;2023-02-01T04:13:17;8.00;6.00;6.00
76049;PMS7003;64967;50.234;19.224;2023-02-01T04:15:44;6.00;5.75;5.00
76049;PMS7003;64967;50.234;19.224;2023-02-01T04:18:12;6.00;6.00;5.00
76049;PMS7003;64967;50.234;19.224;2023-02-01T04:20:39;5.25;5.00;4.00
76049;PMS7003;64967;50.234;19.224;2023-02-01T04:23:06;4.25;3.00;2.00
76049;PMS7003;64967;50.234;19.224;2023-02-01T04:25:33;4.50;2.50;2.00
76049;PMS7003;64967;50.234;19.224;2023-02-01T04:28:00;5.00;4.00;3.50
76049;PMS7003;64967;50.234;19.224;2023-02-01T04:30:27;4.25;2.00;2.00
76049;PMS7003;64967;50.234;19.224;2023-02-01T04:32:54;5.50;4.00;3.00
76049;PMS7003;64967;50.234;19.224;2023-02-01T04:35:21;8.00;6.00;4.00
76049;PMS7003;64967;50.234;19.224;2023-02-01T04:37:48;5.00;4.00;3.50
76049;PMS7003;64967;50.234;19.224;2023-02-01T04:40:15;5.50;5.00;4.00
76049;PMS7003;64967;50.234;19.224;2023-02-01T04:42:42;2.00;2.00;2.00
76049;PMS7003;64967;50.234;19.224;2023-02-01T04:45:09;3.50;3.50;2.00
76049;PMS7003;64967;50.234;19.224;2023-02-01T04:47:36;5.75;2.00;2.00
76049;PMS7003;64967;50.234;19.224;2023-02-01T04:50:04;4.75;2.00;2.00
76049;PMS7003;64967;50.234;19.224;2023-02-01T04:52:32;3.50;3.50;3.50
76049;PMS7003;64967;50.234;19.224;2023-02-01T04:54:59;8.50;6.50;4.75
76049;PMS7003;64967;50.234;19.224;2023-02-01T04:57:26;12.00;8.50;6.00
76049;PMS7003;64967;50.234;19.224;2023-02-01T04:59:53;8.25;6.50;4.50
76049;PMS7003;64967;50.234;19.224;2023-02-01T05:02:20;8.75;6.50;6.00
76049;PMS7003;64967;50.234;19.224;2023-02-01T05:04:47;6.50;6.00;5.00
76049;PMS7003;64967;50.234;19.224;2023-02-01T05:07:14;8.00;6.00;5.00
76049;PMS7003;64967;50.234;19.224;2023-02-01T05:09:41;5.25;5.25;4.50
76049;PMS7003;64967;50.234;19.224;2023-02-01T05:12:09;7.50;6.00;5.50
76049;PMS7003;64967;50.234;19.224;2023-02-01T05:14:55;5.25;4.50;4.00
76049;PMS7003;64967;50.234;19.224;2023-02-01T05:17:22;8.25;6.00;5.25
76049;PMS7003;64967;50.234;19.224;2023-02-01T05:19:48;6.00;5.00;4.00
76049;PMS7003;64967;50.234;19.224;2023-02-01T05:22:15;7.75;7.75;5.50
76049;PMS7003;64967;50.234;19.224;2023-02-01T05:24:42;8.75;8.25;6.00
76049;PMS7003;64967;50.234;19.224;2023-02-01T05:27:10;10.50;7.00;6.00
76049;PMS7003;64967;50.234;19.224;2023-02-01T05:29:37;10.33;9.00;6.67
76049;PMS7003;64967;50.234;19.224;2023-02-01T05:32:04;4.33;2.00;0.00
76049;PMS7003;64967;50.234;19.224;2023-02-01T05:34:47;16.67;13.00;9.00
76049;PMS7003;64967;50.234;19.224;2023-02-01T05:37:14;15.00;14.33;9.00
76049;PMS7003;64967;50.234;19.224;2023-02-01T05:39:41;8.75;8.50;7.50
76049;PMS7003;64967;50.234;19.224;2023-02-01T05:42:08;16.33;12.67;9.00
76049;PMS7003;64967;50.234;19.224;2023-02-01T05:44:35;16.00;12.00;8.00
76049;PMS7003;64967;50.234;19.224;2023-02-01T05:47:02;14.75;12.25;8.00
76049;PMS7003;64967;50.234;19.224;2023-02-01T05:49:28;12.75;9.25;6.00
76049;PMS7003;64967;50.234;19.224;2023-02-01T05:51:55;12.00;11.00;8.50
76049;PMS7003;64967;50.234;19.224;2023-02-01T05:54:25;7.00;6.00;4.75
76049;PMS7003;64967;50.234;19.224;2023-02-01T05:56:52;15.75;10.25;6.00
76049;PMS7003;64967;50.234;19.224;2023-02-01T05:59:19;13.00;10.75;8.25
76049;PMS7003;64967;50.234;19.224;2023-02-01T06:01:46;11.00;11.00;8.25
76049;PMS7003;64967;50.234;19.224;2023-02-01T06:04:13;13.00;10.00;8.00
76049;PMS7003;64967;50.234;19.224;2023-02-01T06:06:40;14.00;10.00;6.00
76049;PMS7003;64967;50.234;19.224;2023-02-01T06:09:07;12.25;10.50;8.25
76049;PMS7003;64967;50.234;19.224;2023-02-01T06:11:34;16.25;10.00;8.00
76049;PMS7003;64967;50.234;19.224;2023-02-01T06:14:01;20.25;14.25;8.25
76049;PMS7003;64967;50.234;19.224;2023-02-01T06:16:28;15.00;11.33;6.00
76049;PMS7003;64967;50.234;19.224;2023-02-01T06:18:55;16.33;9.67;8.00
76049;PMS7003;64967;50.234;19.224;2023-02-01T06:21:22;21.50;13.75;8.25
76049;PMS7003;64967;50.234;19.224;2023-02-01T06:23:52;14.75;11.00;8.00
76049;PMS7003;64967;50.234;19.224;2023-02-01T06:26:20;16.00;12.00;9.00
76049;PMS7003;64967;50.234;19.224;2023-02-01T06:28:48;21.33;16.00;9.67
76049;PMS7003;64967;50.234;19.224;2023-02-01T06:31:15;12.75;11.00;7.00
76049;PMS7003;64967;50.234;19.224;2023-02-01T06:33:42;15.75;12.25;8.25
76049;PMS7003;64967;50.234;19.224;2023-02-01T06:36:09;24.33;19.67;14.00
76049;PMS7003;64967;50.234;19.224;2023-02-01T06:38:38;24.00;16.00;10.00
76049;PMS7003;64967;50.234;19.224;2023-02-01T06:41:05;17.00;13.67;10.00
76049;PMS7003;64967;50.234;19.224;2023-02-01T06:43:33;14.00;10.00;8.25
76049;PMS7003;64967;50.234;19.224;2023-02-01T06:46:04;16.25;12.00;8.25
76049;PMS7003;64967;50.234;19.224;2023-02-01T06:48:33;7.75;4.25;2.00
76049;PMS7003;64967;50.234;19.224;2023-02-01T06:51:00;19.50;13.75;9.00
76049;PMS7003;64967;50.234;19.224;2023-02-01T06:53:28;14.25;13.00;9.25
76049;PMS7003;64967;50.234;19.224;2023-02-01T06:55:55;12.25;9.00;6.00
76049;PMS7003;64967;50.234;19.224;2023-02-01T06:58:28;12.25;10.00;9.00
76049;PMS7003;64967;50.234;19.224;2023-02-01T07:01:03;14.00;10.50;8.00
76049;PMS7003;64967;50.234;19.224;2023-02-01T07:03:32;9.00;8.00;5.00
76049;PMS7003;64967;50.234;19.224;2023-02-01T07:05:59;16.25;10.00;7.25
76049;PMS7003;64967;50.234;19.224;2023-02-01T07:08:29;12.50;11.25;8.00
76049;PMS7003;64967;50.234;19.224;2023-02-01T07:11:07;9.75;8.25;5.75
76049;PMS7003;64967;50.234;19.224;2023-02-01T07:13:36;9.25;9.00;6.00
76049;PMS7003;64967;50.234;19.224;2023-02-01T07:16:08;10.50;9.25;8.00
76049;PMS7003;64967;50.234;19.224;2023-02-01T07:18:37;10.50;8.25;6.00
76049;PMS7003;64967;50.234;19.224;2023-02-01T07:21:04;18.50;12.25;9.00
76049;PMS7003;64967;50.234;19.224;2023-02-01T07:23:31;9.50;9.50;6.75
76049;PMS7003;64967;50.234;19.224;2023-02-01T07:26:00;12.00;7.75;5.00
76049;PMS7003;64967;50.234;19.224;2023-02-01T07:28:30;16.00;11.25;9.00
76049;PMS7003;64967;50.234;19.224;2023-02-01T07:31:17;8.50;6.75;6.00
76049;PMS7003;64967;50.234;19.224;2023-02-01T07:33:47;9.00;7.50;5.75
76049;PMS7003;64967;50.234;19.224;2023-02-01T07:36:18;5.75;4.25;4.00
76049;PMS7003;64967;50.234;19.224;2023-02-01T07:38:46;5.25;5.00;3.00
76049;PMS7003;64967;50.234;19.224;2023-02-01T07:41:15;9.00;6.00;5.00
76049;PMS7003;64967;50.234;19.224;2023-02-01T07:43:43;9.00;8.00;6.50
76049;PMS7003;64967;50.234;19.224;2023-02-01T07:46:11;19.50;16.50;11.00
76049;PMS7003;64967;50.234;19.224;2023-02-01T07:48:38;28.67;24.33;17.33
76049;PMS7003;64967;50.234;19.224;2023-02-01T07:51:07;49.33;42.00;29.00
76049;PMS7003;64967;50.234;19.224;2023-02-01T07:53:37;30.67;27.00;19.33
76049;PMS7003;64967;50.234;19.224;2023-02-01T07:56:09;32.33;26.00;20.33
76049;PMS7003;64967;50.234;19.224;2023-02-01T07:58:41;20.50;19.50;13.75
76049;PMS7003;64967;50.234;19.224;2023-02-01T08:01:15;14.00;12.33;10.00
76049;PMS7003;64967;50.234;19.224;2023-02-01T08:03:48;13.50;12.75;10.75
76049;PMS7003;64967;50.234;19.224;2023-02-01T08:06:16;13.50;11.50;9.75
76049;PMS7003;64967;50.234;19.224;2023-02-01T08:08:46;19.50;17.00;10.00
76049;PMS7003;64967;50.234;19.224;2023-02-01T08:11:14;10.75;10.00;9.00
76049;PMS7003;64967;50.234;19.224;2023-02-01T08:13:42;21.75;16.00;10.50
76049;PMS7003;64967;50.234;19.224;2023-02-01T08:16:10;17.75;12.25;8.25
76049;PMS7003;64967;50.234;19.224;2023-02-01T08:18:38;19.25;13.75;10.00
76049;PMS7003;64967;50.234;19.224;2023-02-01T08:21:09;16.00;11.25;7.75
76049;PMS7003;64967;50.234;19.224;2023-02-01T08:23:37;15.50;13.00;7.00
76049;PMS7003;64967;50.234;19.224;2023-02-01T08:26:12;6.25;5.00;4.50
76049;PMS7003;64967;50.234;19.224;2023-02-01T08:28:43;10.25;9.00;7.25
76049;PMS7003;64967;50.234;19.224;2023-02-01T08:31:15;10.00;9.25;5.00
76049;PMS7003;64967;50.234;19.224;2023-02-01T08:33:44;17.75;13.75;9.75
76049;PMS7003;64967;50.234;19.224;2023-02-01T08:36:15;0.00;0.00;0.00
76049;PMS7003;64967;50.234;19.224;2023-02-01T08:38:43;18.75;9.75;5.00
76049;PMS7003;64967;50.234;19.224;2023-02-01T08:41:11;20.50;17.50;11.00
76049;PMS7003;64967;50.234;19.224;2023-02-01T08:43:40;19.50;17.25;11.00
76049;PMS7003;64967;50.234;19.224;2023-02-01T08:46:08;17.00;13.00;10.00
76049;PMS7003;64967;50.234;19.224;2023-02-01T08:48:36;18.75;11.75;9.75
76049;PMS7003;64967;50.234;19.224;2023-02-01T08:51:04;18.50;15.25;13.00
76049;PMS7003;64967;50.234;19.224;2023-02-01T08:53:32;34.00;28.67;18.00
76049;PMS7003;64967;50.234;19.224;2023-02-01T08:55:59;28.00;23.75;16.50
76049;PMS7003;64967;50.234;19.224;2023-02-01T08:58:27;41.00;34.00;24.33
76049;PMS7003;64967;50.234;19.224;2023-02-01T09:00:54;33.75;26.25;20.50
76049;PMS7003;64967;50.234;19.224;2023-02-01T09:03:21;27.00;24.75;16.25
76049;PMS7003;64967;50.234;19.224;2023-02-01T09:05:48;28.50;25.25;18.75
76049;PMS7003;64967;50.234;19.224;2023-02-01T09:08:16;37.33;31.00;22.67
76049;PMS7003;64967;50.234;19.224;2023-02-01T09:10:45;36.25;27.75;17.75
76049;PMS7003;64967;50.234;19.224;2023-02-01T09:13:12;31.00;25.50;14.25
76049;PMS7003;64967;50.234;19.224;2023-02-01T09:15:39;26.75;20.25;15.25
76049;PMS7003;64967;50.234;19.224;2023-02-01T09:18:06;33.00;26.00;18.50
76049;PMS7003;64967;50.234;19.224;2023-02-01T09:20:33;23.00;18.75;13.50
76049;PMS7003;64967;50.234;19.224;2023-02-01T09:23:00;23.25;17.75;13.00
76049;PMS7003;64967;50.234;19.224;2023-02-01T09:25:27;16.25;15.00;11.25
76049;PMS7003;64967;50.234;19.224;2023-02-01T09:27:54;19.50;15.75;11.25
76049;PMS7003;64967;50.234;19.224;2023-02-01T09:30:21;13.50;11.75;9.50
76049;PMS7003;64967;50.234;19.224;2023-02-01T09:32:49;13.00;11.75;10.50
76049;PMS7003;64967;50.234;19.224;2023-02-01T09:35:16;14.25;12.50;10.00
76049;PMS7003;64967;50.234;19.224;2023-02-01T09:37:43;17.50;11.75;8.50
76049;PMS7003;64967;50.234;19.224;2023-02-01T09:40:13;10.25;7.00;5.00
76049;PMS7003;64967;50.234;19.224;2023-02-01T09:47:55;14.50;12.25;9.00
76049;PMS7003;64967;50.234;19.224;2023-02-01T09:50:39;18.50;16.00;11.50
76049;PMS7003;64967;50.234;19.224;2023-02-01T09:55:47;15.75;12.50;11.00
76049;PMS7003;64967;50.234;19.224;2023-02-01T09:58:36;16.25;13.00;10.00
76049;PMS7003;64967;50.234;19.224;2023-02-01T10:01:41;15.00;12.25;10.00
76049;PMS7003;64967;50.234;19.224;2023-02-01T10:04:02;15.00;11.00;9.25
76049;PMS7003;64967;50.234;19.224;2023-02-01T10:18:08;10.50;7.00;5.00
76049;PMS7003;64967;50.234;19.224;2023-02-01T10:26:25;11.50;10.00;7.75
76049;PMS7003;64967;50.234;19.224;2023-02-01T10:29:01;12.50;11.75;10.00
76049;PMS7003;64967;50.234;19.224;2023-02-01T10:31:31;17.75;14.00;10.00
76049;PMS7003;64967;50.234;19.224;2023-02-01T10:34:22;14.50;11.00;9.00
76049;PMS7003;64967;50.234;19.224;2023-02-01T10:39:46;10.25;9.50;7.00
76049;PMS7003;64967;50.234;19.224;2023-02-01T10:42:19;9.00;8.25;6.00
76049;PMS7003;64967;50.234;19.224;2023-02-01T10:44:51;9.75;8.50;6.50
76049;PMS7003;64967;50.234;19.224;2023-02-01T10:47:22;17.00;10.50;8.25
76049;PMS7003;64967;50.234;19.224;2023-02-01T10:58:20;15.50;13.25;10.00
76049;PMS7003;64967;50.234;19.224;2023-02-01T11:06:28;10.50;6.50;4.00
76049;PMS7003;64967;50.234;19.224;2023-02-01T11:08:59;12.50;10.75;7.00
76049;PMS7003;64967;50.234;19.224;2023-02-01T11:14:16;11.50;10.50;7.25
76049;PMS7003;64967;50.234;19.224;2023-02-01T11:16:49;13.75;10.00;7.00
76049;PMS7003;64967;50.234;19.224;2023-02-01T11:19:19;17.25;13.50;9.50
76049;PMS7003;64967;50.234;19.224;2023-02-01T11:21:50;17.50;11.50;8.75
76049;PMS7003;64967;50.234;19.224;2023-02-01T11:24:40;14.50;11.00;8.00
76049;PMS7003;64967;50.234;19.224;2023-02-01T11:27:12;12.75;10.00;8.25
76049;PMS7003;64967;50.234;19.224;2023-02-01T11:29:53;10.50;10.50;9.00
76049;PMS7003;64967;50.234;19.224;2023-02-01T11:32:24;16.75;14.00;9.00
76049;PMS7003;64967;50.234;19.224;2023-02-01T11:34:53;19.00;11.00;7.50
76049;PMS7003;64967;50.234;19.224;2023-02-01T11:39:57;11.50;10.25;8.25
76049;PMS7003;64967;50.234;19.224;2023-02-01T11:42:27;13.00;11.25;9.00
76049;PMS7003;64967;50.234;19.224;2023-02-01T11:47:46;11.50;11.00;9.00
76049;PMS7003;64967;50.234;19.224;2023-02-01T11:50:22;18.75;14.00;10.75
76049;PMS7003;64967;50.234;19.224;2023-02-01T11:53:02;16.75;15.00;11.00
76049;PMS7003;64967;50.234;19.224;2023-02-01T11:58:27;11.50;10.00;7.25
76049;PMS7003;64967;50.234;19.224;2023-02-01T12:01:09;15.25;12.00;9.00
76049;PMS7003;64967;50.234;19.224;2023-02-01T12:06:53;20.25;18.75;13.00
76049;PMS7003;64967;50.234;19.224;2023-02-01T12:12:04;18.00;15.50;11.75
76049;PMS7003;64967;50.234;19.224;2023-02-01T12:22:34;17.75;12.50;10.25
76049;PMS7003;64967;50.234;19.224;2023-02-01T12:35:54;19.00;14.00;9.25
76049;PMS7003;64967;50.234;19.224;2023-02-01T12:38:55;12.00;9.00;7.00
76049;PMS7003;64967;50.234;19.224;2023-02-01T12:44:17;9.00;8.50;8.25
76049;PMS7003;64967;50.234;19.224;2023-02-01T12:46:57;14.25;14.00;9.50
76049;PMS7003;64967;50.234;19.224;2023-02-01T12:49:51;16.00;14.00;10.00
76049;PMS7003;64967;50.234;19.224;2023-02-01T12:52:23;15.25;10.00;8.75
76049;PMS7003;64967;50.234;19.224;2023-02-01T12:55:03;10.50;8.25;6.75
76049;PMS7003;64967;50.234;19.224;2023-02-01T12:57:37;15.25;11.00;8.00
76049;PMS7003;64967;50.234;19.224;2023-02-01T13:05:19;14.50;10.75;7.50
76049;PMS7003;64967;50.234;19.224;2023-02-01T13:10:38;15.25;11.25;7.75
76049;PMS7003;64967;50.234;19.224;2023-02-01T13:16:06;11.75;10.75;9.00
76049;PMS7003;64967;50.234;19.224;2023-02-01T13:19:05;18.75;11.00;10.00
76049;PMS7003;64967;50.234;19.224;2023-02-01T13:21:56;15.00;12.75;10.00
76049;PMS7003;64967;50.234;19.224;2023-02-01T13:24:45;21.00;16.00;12.25
76049;PMS7003;64967;50.234;19.224;2023-02-01T13:27:14;13.75;11.00;9.00
76049;PMS7003;64967;50.234;19.224;2023-02-01T13:30:05;18.50;15.00;10.25
76049;PMS7003;64967;50.234;19.224;2023-02-01T13:32:48;16.25;13.00;9.00
76049;PMS7003;64967;50.234;19.224;2023-02-01T13:43:56;14.00;12.25;9.00
76049;PMS7003;64967;50.234;19.224;2023-02-01T13:46:27;18.50;14.75;10.00
76049;PMS7003;64967;50.234;19.224;2023-02-01T13:48:56;12.75;10.50;7.50
76049;PMS7003;64967;50.234;19.224;2023-02-01T13:51:43;16.75;15.00;11.25
76049;PMS7003;64967;50.234;19.224;2023-02-01T13:57:01;14.75;11.75;9.00
76049;PMS7003;64967;50.234;19.224;2023-02-01T14:13:31;19.75;17.00;14.00
76049;PMS7003;64967;50.234;19.224;2023-02-01T14:16:21;13.75;13.75;10.75
76049;PMS7003;64967;50.234;19.224;2023-02-01T14:18:56;19.75;17.00;13.00
76049;PMS7003;64967;50.234;19.224;2023-02-01T14:21:27;21.75;12.25;10.00
76049;PMS7003;64967;50.234;19.224;2023-02-01T14:24:05;17.00;15.75;10.50
76049;PMS7003;64967;50.234;19.224;2023-02-01T14:26:51;14.00;13.00;10.00
76049;PMS7003;64967;50.234;19.224;2023-02-01T14:29:39;11.00;7.50;6.00
76049;PMS7003;64967;50.234;19.224;2023-02-01T14:32:15;12.25;11.00;7.50
76049;PMS7003;64967;50.234;19.224;2023-02-01T14:44:48;16.25;13.00;9.00
76049;PMS7003;64967;50.234;19.224;2023-02-01T14:52:39;21.00;16.50;12.75
76049;PMS7003;64967;50.234;19.224;2023-02-01T14:55:13;13.75;13.00;10.50
76049;PMS7003;64967;50.234;19.224;2023-02-01T14:57:46;14.00;14.00;9.50
76049;PMS7003;64967;50.234;19.224;2023-02-01T15:00:24;22.00;20.00;16.00
76049;PMS7003;64967;50.234;19.224;2023-02-01T15:03:13;24.33;18.33;14.00
76049;PMS7003;64967;50.234;19.224;2023-02-01T15:06:00;24.00;21.00;16.00
76049;PMS7003;64967;50.234;19.224;2023-02-01T15:08:35;28.00;21.00;13.00
76049;PMS7003;64967;50.234;19.224;2023-02-01T15:11:06;20.00;17.00;12.33
76049;PMS7003;64967;50.234;19.224;2023-02-01T15:13:38;17.25;16.00;12.00
76049;PMS7003;64967;50.234;19.224;2023-02-01T15:16:12;24.00;19.67;13.33
76049;PMS7003;64967;50.234;19.224;2023-02-01T15:18:41;22.67;18.33;13.00
76049;PMS7003;64967;50.234;19.224;2023-02-01T15:21:15;21.33;20.00;13.67
76049;PMS7003;64967;50.234;19.224;2023-02-01T15:24:09;22.67;19.00;13.33
76049;PMS7003;64967;50.234;19.224;2023-02-01T15:26:37;22.33;21.00;16.33
76049;PMS7003;64967;50.234;19.224;2023-02-01T15:29:04;35.00;29.00;19.67
76049;PMS7003;64967;50.234;19.224;2023-02-01T15:31:38;28.33;20.00;14.00
76049;PMS7003;64967;50.234;19.224;2023-02-01T15:34:11;13.00;9.33;3.33
76049;PMS7003;64967;50.234;19.224;2023-02-01T15:36:39;22.67;17.00;13.00
76049;PMS7003;64967;50.234;19.224;2023-02-01T15:39:24;24.00;20.67;16.00
76049;PMS7003;64967;50.234;19.224;2023-02-01T15:41:59;25.00;21.00;13.33
76049;PMS7003;64967;50.234;19.224;2023-02-01T15:44:39;27.33;21.33;15.33
76049;PMS7003;64967;50.234;19.224;2023-02-01T15:47:18;20.33;17.67;14.00
76049;PMS7003;64967;50.234;19.224;2023-02-01T15:49:52;27.33;20.67;14.00
76049;PMS7003;64967;50.234;19.224;2023-02-01T15:52:35;21.00;18.00;13.33
76049;PMS7003;64967;50.234;19.224;2023-02-01T15:55:05;16.00;14.00;12.00
76049;PMS7003;64967;50.234;19.224;2023-02-01T15:57:36;17.00;17.00;11.67
76049;PMS7003;64967;50.234;19.224;2023-02-01T16:00:30;20.67;17.33;13.00
76049;PMS7003;64967;50.234;19.224;2023-02-01T16:03:02;20.00;17.00;13.00
76049;PMS7003;64967;50.234;19.224;2023-02-01T16:05:33;20.00;15.33;10.67
76049;PMS7003;64967;50.234;19.224;2023-02-01T16:10:45;14.75;14.25;10.00
76049;PMS7003;64967;50.234;19.224;2023-02-01T16:13:14;22.00;19.33;13.33
76049;PMS7003;64967;50.234;19.224;2023-02-01T16:15:43;14.25;12.75;10.25
76049;PMS7003;64967;50.234;19.224;2023-02-01T16:18:11;10.75;10.00;8.00
76049;PMS7003;64967;50.234;19.224;2023-02-01T16:20:42;13.75;12.00;9.00
76049;PMS7003;64967;50.234;19.224;2023-02-01T16:23:09;13.75;12.50;10.25
76049;PMS7003;64967;50.234;19.224;2023-02-01T16:25:37;14.50;13.75;10.00
76049;PMS7003;64967;50.234;19.224;2023-02-01T16:28:05;13.75;10.00;7.75
76049;PMS7003;64967;50.234;19.224;2023-02-01T16:30:32;20.25;17.00;11.75
76049;PMS7003;64967;50.234;19.224;2023-02-01T16:33:00;16.25;15.25;13.00
76049;PMS7003;64967;50.234;19.224;2023-02-01T16:35:30;20.33;17.00;13.00
76049;PMS7003;64967;50.234;19.224;2023-02-01T16:38:07;26.67;23.33;17.00
76049;PMS7003;64967;50.234;19.224;2023-02-01T16:40:42;19.00;17.00;13.00
76049;PMS7003;64967;50.234;19.224;2023-02-01T16:43:17;21.25;16.75;11.00
76049;PMS7003;64967;50.234;19.224;2023-02-01T16:45:46;19.75;17.25;13.75
76049;PMS7003;64967;50.234;19.224;2023-02-01T16:48:17;20.00;17.25;13.00
76049;PMS7003;64967;50.234;19.224;2023-02-01T16:50:50;24.75;21.75;16.00
76049;PMS7003;64967;50.234;19.224;2023-02-01T16:53:20;21.67;18.00;14.00
76049;PMS7003;64967;50.234;19.224;2023-02-01T16:55:48;17.00;14.67;11.33
76049;PMS7003;64967;50.234;19.224;2023-02-01T16:58:16;14.50;14.00;10.00
76049;PMS7003;64967;50.234;19.224;2023-02-01T17:00:43;17.25;13.50;9.25